sensor_id;sensor_type;location;lat;lon;timestamp;temperature;humidity
19242;DHT22;9755;47.790;9.620;2022-10-30T00:01:48;9.20;99.90
19242;DHT22;9755;47.790;9.620;2022-10-30T00:04:15;9.30;99.90
19242;DHT22;9755;47.790;9.620;2022-10-30T00:06:42;9.40;99.90
19242;DHT22;9755;47.790;9.620;2022-10-30T00:09:10;9.40;99.90
19242;DHT22;9755;47.790;9.620;2022-10-30T00:11:38;9.40;99.90
19242;DHT22;9755;47.790;9.620;2022-10-30T00:14:05;9.30;99.90
19242;DHT22;9755;47.790;9.620;2022-10-30T00:16:32;9.30;99.90
19242;DHT22;9755;47.790;9.620;2022-10-30T00:19:02;9.10;99.90
19242;DHT22;9755;47.790;9.620;2022-10-30T00:21:29;9.10;99.90
19242;DHT22;9755;47.790;9.620;2022-10-30T00:23:56;9.10;99.90
19242;DHT22;9755;47.790;9.620;2022-10-30T00:26:24;9.10;99.90
19242;DHT22;9755;47.790;9.620;2022-10-30T00:28:54;8.80;99.90
19242;DHT22;9755;47.790;9.620;2022-10-30T00:31:22;8.60;99.90
19242;DHT22;9755;47.790;9.620;2022-10-30T00:33:49;8.50;99.90
19242;DHT22;9755;47.790;9.620;2022-10-30T00:36:16;8.40;99.90
19242;DHT22;9755;47.790;9.620;2022-10-30T00:38:43;8.30;99.90
19242;DHT22;9755;47.790;9.620;2022-10-30T00:41:13;8.10;99.90
19242;DHT22;9755;47.790;9.620;2022-10-30T00:43:42;8.10;99.90
19242;DHT22;9755;47.790;9.620;2022-10-30T00:46:15;7.90;99.90
19242;DHT22;9755;47.790;9.620;2022-10-30T00:48:46;7.90;99.90
19242;DHT22;9755;47.790;9.620;2022-10-30T00:51:15;8.00;99.90
19242;DHT22;9755;47.790;9.620;2022-10-30T00:53:42;7.90;99.90
19242;DHT22;9755;47.790;9.620;2022-10-30T00:56:15;7.70;99.90
19242;DHT22;9755;47.790;9.620;2022-10-30T00:58:48;7.80;99.90
19242;DHT22;9755;47.790;9.620;2022-10-30T01:01:19;7.80;99.90
19242;DHT22;9755;47.790;9.620;2022-10-30T01:03:50;7.80;99.90
19242;DHT22;9755;47.790;9.620;2022-10-30T01:06:18;7.70;99.90
19242;DHT22;9755;47.790;9.620;2022-10-30T01:08:46;7.80;99.90
19242;DHT22;9755;47.790;9.620;2022-10-30T01:11:13;7.80;99.90
19242;DHT22;9755;47.790;9.620;2022-10-30T01:13:43;7.60;99.90
19242;DHT22;9755;47.790;9.620;2022-10-30T01:16:35;7.60;99.90
19242;DHT22;9755;47.790;9.620;2022-10-30T01:19:15;7.60;99.90
19242;DHT22;9755;47.790;9.620;2022-10-30T01:21:52;7.60;99.90
19242;DHT22;9755;47.790;9.620;2022-10-30T01:24:32;7.50;99.90
19242;DHT22;9755;47.790;9.620;2022-10-30T01:27:10;7.50;99.90
19242;DHT22;9755;47.790;9.620;2022-10-30T01:29:58;7.60;99.90
19242;DHT22;9755;47.790;9.620;2022-10-30T01:32:40;7.60;99.90
19242;DHT22;9755;47.790;9.620;2022-10-30T01:35:15;7.60;99.90
19242;DHT22;9755;47.790;9.620;2022-10-30T01:37:49;7.70;99.90
19242;DHT22;9755;47.790;9.620;2022-10-30T01:40:18;7.60;99.90
19242;DHT22;9755;47.790;9.620;2022-10-30T01:42:48;7.60;99.90
19242;DHT22;9755;47.790;9.620;2022-10-30T01:45:22;7.90;99.90
19242;DHT22;9755;47.790;9.620;2022-10-30T01:48:13;8.00;99.90
19242;DHT22;9755;47.790;9.620;2022-10-30T01:50:48;7.80;99.90
19242;DHT22;9755;47.790;9.620;2022-10-30T01:53:32;7.70;99.90
19242;DHT22;9755;47.790;9.620;2022-10-30T01:56:13;7.70;99.90
19242;DHT22;9755;47.790;9.620;2022-10-30T01:58:46;7.80;99.90
19242;DHT22;9755;47.790;9.620;2022-10-30T02:01:17;7.70;99.90
19242;DHT22;9755;47.790;9.620;2022-10-30T02:03:45;7.60;99.90
19242;DHT22;9755;47.790;9.620;2022-10-30T02:06:13;7.70;99.90
19242;DHT22;9755;47.790;9.620;2022-10-30T02:08:40;7.70;99.90
19242;DHT22;9755;47.790;9.620;2022-10-30T02:11:08;7.70;99.90
19242;DHT22;9755;47.790;9.620;2022-10-30T02:13:37;7.90;99.90
19242;DHT22;9755;47.790;9.620;2022-10-30T02:16:05;8.10;99.90
19242;DHT22;9755;47.790;9.620;2022-10-30T02:18:33;8.20;99.90
19242;DHT22;9755;47.790;9.620;2022-10-30T02:21:02;8.30;99.90
19242;DHT22;9755;47.790;9.620;2022-10-30T02:23:29;8.30;99.90
19242;DHT22;9755;47.790;9.620;2022-10-30T02:25:57;8.40;99.90
19242;DHT22;9755;47.790;9.620;2022-10-30T02:28:26;8.40;99.90
19242;DHT22;9755;47.790;9.620;2022-10-30T02:30:53;8.40;99.90
19242;DHT22;9755;47.790;9.620;2022-10-30T02:33:20;8.40;99.90
19242;DHT22;9755;47.790;9.620;2022-10-30T02:35:48;8.40;99.90
19242;DHT22;9755;47.790;9.620;2022-10-30T02:38:17;8.30;99.90
19242;DHT22;9755;47.790;9.620;2022-10-30T02:40:44;8.20;99.90
19242;DHT22;9755;47.790;9.620;2022-10-30T02:43:11;8.10;99.90
19242;DHT22;9755;47.790;9.620;2022-10-30T02:45:38;8.00;99.90
19242;DHT22;9755;47.790;9.620;2022-10-30T02:48:05;7.90;99.90
19242;DHT22;9755;47.790;9.620;2022-10-30T02:50:32;7.80;99.90
19242;DHT22;9755;47.790;9.620;2022-10-30T02:52:59;7.70;99.90
19242;DHT22;9755;47.790;9.620;2022-10-30T02:55:28;7.60;99.90
19242;DHT22;9755;47.790;9.620;2022-10-30T02:57:55;7.60;99.90
19242;DHT22;9755;47.790;9.620;2022-10-30T03:00:22;7.50;99.90
19242;DHT22;9755;47.790;9.620;2022-10-30T03:02:54;7.50;99.90
19242;DHT22;9755;47.790;9.620;2022-10-30T03:05:21;7.70;99.90
19242;DHT22;9755;47.790;9.620;2022-10-30T03:07:48;8.00;99.90
19242;DHT22;9755;47.790;9.620;2022-10-30T03:10:16;8.20;99.90
19242;DHT22;9755;47.790;9.620;2022-10-30T03:12:44;8.20;99.90
19242;DHT22;9755;47.790;9.620;2022-10-30T03:15:11;8.20;99.90
19242;DHT22;9755;47.790;9.620;2022-10-30T03:17:38;8.20;99.90
19242;DHT22;9755;47.790;9.620;2022-10-30T03:20:06;8.10;99.90
19242;DHT22;9755;47.790;9.620;2022-10-30T03:22:33;8.00;99.90
19242;DHT22;9755;47.790;9.620;2022-10-30T03:25:00;7.90;99.90
19242;DHT22;9755;47.790;9.620;2022-10-30T03:27:27;7.70;99.90
19242;DHT22;9755;47.790;9.620;2022-10-30T03:29:56;7.60;99.90
19242;DHT22;9755;47.790;9.620;2022-10-30T03:32:23;7.40;99.90
19242;DHT22;9755;47.790;9.620;2022-10-30T03:34:50;7.30;99.90
19242;DHT22;9755;47.790;9.620;2022-10-30T03:37:17;7.60;99.90
19242;DHT22;9755;47.790;9.620;2022-10-30T03:39:44;7.70;99.90
19242;DHT22;9755;47.790;9.620;2022-10-30T03:42:11;7.70;99.90
19242;DHT22;9755;47.790;9.620;2022-10-30T03:44:40;7.80;99.90
19242;DHT22;9755;47.790;9.620;2022-10-30T03:47:09;8.00;99.90
19242;DHT22;9755;47.790;9.620;2022-10-30T03:49:36;7.90;99.90
19242;DHT22;9755;47.790;9.620;2022-10-30T03:52:03;7.80;99.90
19242;DHT22;9755;47.790;9.620;2022-10-30T03:54:30;7.70;99.90
19242;DHT22;9755;47.790;9.620;2022-10-30T03:56:57;7.50;99.90
19242;DHT22;9755;47.790;9.620;2022-10-30T03:59:24;7.30;99.90
19242;DHT22;9755;47.790;9.620;2022-10-30T04:01:51;7.10;99.90
19242;DHT22;9755;47.790;9.620;2022-10-30T04:04:19;7.10;99.90
19242;DHT22;9755;47.790;9.620;2022-10-30T04:06:47;7.20;99.90
19242;DHT22;9755;47.790;9.620;2022-10-30T04:09:17;7.00;99.90
19242;DHT22;9755;47.790;9.620;2022-10-30T04:11:44;6.90;99.90
19242;DHT22;9755;47.790;9.620;2022-10-30T04:14:11;6.70;99.90
19242;DHT22;9755;47.790;9.620;2022-10-30T04:16:38;6.50;99.90
19242;DHT22;9755;47.790;9.620;2022-10-30T04:19:05;6.50;99.90
19242;DHT22;9755;47.790;9.620;2022-10-30T04:21:33;6.50;99.90
19242;DHT22;9755;47.790;9.620;2022-10-30T04:24:00;6.80;99.90
19242;DHT22;9755;47.790;9.620;2022-10-30T04:26:27;7.10;99.90
19242;DHT22;9755;47.790;9.620;2022-10-30T04:28:54;7.30;99.90
19242;DHT22;9755;47.790;9.620;2022-10-30T04:31:21;7.40;99.90
19242;DHT22;9755;47.790;9.620;2022-10-30T04:33:48;7.50;99.90
19242;DHT22;9755;47.790;9.620;2022-10-30T04:36:15;7.60;99.90
19242;DHT22;9755;47.790;9.620;2022-10-30T04:38:45;7.60;99.90
19242;DHT22;9755;47.790;9.620;2022-10-30T04:41:12;7.60;99.90
19242;DHT22;9755;47.790;9.620;2022-10-30T04:43:39;7.70;99.90
19242;DHT22;9755;47.790;9.620;2022-10-30T04:46:06;7.70;99.90
19242;DHT22;9755;47.790;9.620;2022-10-30T04:48:33;7.70;99.90
19242;DHT22;9755;47.790;9.620;2022-10-30T04:51:01;7.60;99.90
19242;DHT22;9755;47.790;9.620;2022-10-30T04:53:47;7.50;99.90
19242;DHT22;9755;47.790;9.620;2022-10-30T04:56:15;7.40;99.90
19242;DHT22;9755;47.790;9.620;2022-10-30T04:58:42;7.50;99.90
19242;DHT22;9755;47.790;9.620;2022-10-30T05:01:09;7.50;99.90
19242;DHT22;9755;47.790;9.620;2022-10-30T05:03:36;7.60;99.90
19242;DHT22;9755;47.790;9.620;2022-10-30T05:06:05;7.60;99.90
19242;DHT22;9755;47.790;9.620;2022-10-30T05:08:33;7.70;99.90
19242;DHT22;9755;47.790;9.620;2022-10-30T05:11:04;7.60;99.90
19242;DHT22;9755;47.790;9.620;2022-10-30T05:13:32;7.60;99.90
19242;DHT22;9755;47.790;9.620;2022-10-30T05:15:58;7.60;99.90
19242;DHT22;9755;47.790;9.620;2022-10-30T05:18:25;7.60;99.90
19242;DHT22;9755;47.790;9.620;2022-10-30T05:20:52;7.60;99.90
19242;DHT22;9755;47.790;9.620;2022-10-30T05:23:19;7.50;99.90
19242;DHT22;9755;47.790;9.620;2022-10-30T05:25:46;7.50;99.90
19242;DHT22;9755;47.790;9.620;2022-10-30T05:28:15;7.50;99.90
19242;DHT22;9755;47.790;9.620;2022-10-30T05:30:42;7.50;99.90
19242;DHT22;9755;47.790;9.620;2022-10-30T05:33:10;7.40;99.90
19242;DHT22;9755;47.790;9.620;2022-10-30T05:35:38;7.40;99.90
19242;DHT22;9755;47.790;9.620;2022-10-30T05:38:06;7.30;99.90
19242;DHT22;9755;47.790;9.620;2022-10-30T05:40:34;7.30;99.90
19242;DHT22;9755;47.790;9.620;2022-10-30T05:43:01;7.30;99.90
19242;DHT22;9755;47.790;9.620;2022-10-30T05:45:30;7.40;99.90
19242;DHT22;9755;47.790;9.620;2022-10-30T05:47:58;7.30;99.90
19242;DHT22;9755;47.790;9.620;2022-10-30T05:50:26;7.30;99.90
19242;DHT22;9755;47.790;9.620;2022-10-30T05:52:54;7.30;99.90
19242;DHT22;9755;47.790;9.620;2022-10-30T05:55:22;7.20;99.90
19242;DHT22;9755;47.790;9.620;2022-10-30T05:57:53;7.00;99.90
19242;DHT22;9755;47.790;9.620;2022-10-30T06:00:21;6.80;99.90
19242;DHT22;9755;47.790;9.620;2022-10-30T06:02:49;6.80;99.90
19242;DHT22;9755;47.790;9.620;2022-10-30T06:05:16;6.90;99.90
19242;DHT22;9755;47.790;9.620;2022-10-30T06:07:43;6.90;99.90
19242;DHT22;9755;47.790;9.620;2022-10-30T06:10:10;6.90;99.90
19242;DHT22;9755;47.790;9.620;2022-10-30T06:12:37;6.90;99.90
19242;DHT22;9755;47.790;9.620;2022-10-30T06:15:05;6.90;99.90
19242;DHT22;9755;47.790;9.620;2022-10-30T06:17:32;6.90;99.90
19242;DHT22;9755;47.790;9.620;2022-10-30T06:20:00;6.90;99.90
19242;DHT22;9755;47.790;9.620;2022-10-30T06:22:27;6.90;99.90
19242;DHT22;9755;47.790;9.620;2022-10-30T06:24:54;6.90;99.90
19242;DHT22;9755;47.790;9.620;2022-10-30T06:27:21;7.00;99.90
19242;DHT22;9755;47.790;9.620;2022-10-30T06:29:48;7.10;99.90
19242;DHT22;9755;47.790;9.620;2022-10-30T06:32:15;7.30;99.90
19242;DHT22;9755;47.790;9.620;2022-10-30T06:34:42;7.40;99.90
19242;DHT22;9755;47.790;9.620;2022-10-30T06:37:11;7.50;99.90
19242;DHT22;9755;47.790;9.620;2022-10-30T06:39:38;7.60;99.90
19242;DHT22;9755;47.790;9.620;2022-10-30T06:42:05;7.60;99.90
19242;DHT22;9755;47.790;9.620;2022-10-30T06:44:32;7.60;99.90
19242;DHT22;9755;47.790;9.620;2022-10-30T06:46:59;7.70;99.90
19242;DHT22;9755;47.790;9.620;2022-10-30T06:49:26;7.80;99.90
19242;DHT22;9755;47.790;9.620;2022-10-30T06:51:53;7.90;99.90
19242;DHT22;9755;47.790;9.620;2022-10-30T06:54:22;7.90;99.90
19242;DHT22;9755;47.790;9.620;2022-10-30T06:56:49;8.00;99.90
19242;DHT22;9755;47.790;9.620;2022-10-30T06:59:16;8.10;99.90
19242;DHT22;9755;47.790;9.620;2022-10-30T07:01:43;8.10;99.90
19242;DHT22;9755;47.790;9.620;2022-10-30T07:04:10;8.10;99.90
19242;DHT22;9755;47.790;9.620;2022-10-30T07:06:37;8.20;99.90
19242;DHT22;9755;47.790;9.620;2022-10-30T07:09:04;8.30;99.90
19242;DHT22;9755;47.790;9.620;2022-10-30T07:11:33;8.50;99.90
19242;DHT22;9755;47.790;9.620;2022-10-30T07:14:00;8.80;99.90
19242;DHT22;9755;47.790;9.620;2022-10-30T07:16:27;9.00;99.90
19242;DHT22;9755;47.790;9.620;2022-10-30T07:18:54;9.10;99.90
19242;DHT22;9755;47.790;9.620;2022-10-30T07:21:21;9.40;99.90
19242;DHT22;9755;47.790;9.620;2022-10-30T07:23:48;9.70;99.90
19242;DHT22;9755;47.790;9.620;2022-10-30T07:26:15;10.10;99.90
19242;DHT22;9755;47.790;9.620;2022-10-30T07:28:44;10.10;99.90
19242;DHT22;9755;47.790;9.620;2022-10-30T07:31:11;10.10;99.90
19242;DHT22;9755;47.790;9.620;2022-10-30T07:33:38;10.20;99.90
19242;DHT22;9755;47.790;9.620;2022-10-30T07:36:06;10.20;99.90
19242;DHT22;9755;47.790;9.620;2022-10-30T07:38:33;10.50;99.90
19242;DHT22;9755;47.790;9.620;2022-10-30T07:41:00;11.00;99.90
19242;DHT22;9755;47.790;9.620;2022-10-30T07:43:27;11.10;99.90
19242;DHT22;9755;47.790;9.620;2022-10-30T07:45:55;11.10;99.90
19242;DHT22;9755;47.790;9.620;2022-10-30T07:48:22;11.30;99.90
19242;DHT22;9755;47.790;9.620;2022-10-30T07:50:49;11.50;99.90
19242;DHT22;9755;47.790;9.620;2022-10-30T07:53:16;11.50;99.90
19242;DHT22;9755;47.790;9.620;2022-10-30T07:55:43;11.60;99.90
19242;DHT22;9755;47.790;9.620;2022-10-30T07:58:11;11.80;99.90
19242;DHT22;9755;47.790;9.620;2022-10-30T08:00:38;11.90;99.90
19242;DHT22;9755;47.790;9.620;2022-10-30T08:03:07;12.00;99.90
19242;DHT22;9755;47.790;9.620;2022-10-30T08:05:34;12.00;99.90
19242;DHT22;9755;47.790;9.620;2022-10-30T08:08:01;12.50;99.90
19242;DHT22;9755;47.790;9.620;2022-10-30T08:10:29;13.00;99.90
19242;DHT22;9755;47.790;9.620;2022-10-30T08:12:56;13.70;99.90
19242;DHT22;9755;47.790;9.620;2022-10-30T08:15:23;14.20;99.90
19242;DHT22;9755;47.790;9.620;2022-10-30T08:17:51;14.80;99.90
19242;DHT22;9755;47.790;9.620;2022-10-30T08:20:21;15.20;99.90
19242;DHT22;9755;47.790;9.620;2022-10-30T08:22:49;15.40;99.90
19242;DHT22;9755;47.790;9.620;2022-10-30T08:25:18;15.80;99.90
19242;DHT22;9755;47.790;9.620;2022-10-30T08:27:49;16.10;99.90
19242;DHT22;9755;47.790;9.620;2022-10-30T08:30:17;16.70;99.90
19242;DHT22;9755;47.790;9.620;2022-10-30T08:32:44;17.70;99.90
19242;DHT22;9755;47.790;9.620;2022-10-30T08:35:11;18.50;99.90
19242;DHT22;9755;47.790;9.620;2022-10-30T08:37:39;18.70;1.00
19242;DHT22;9755;47.790;9.620;2022-10-30T08:40:08;19.20;99.90
19242;DHT22;9755;47.790;9.620;2022-10-30T08:42:35;19.40;1.00
19242;DHT22;9755;47.790;9.620;2022-10-30T08:45:04;19.90;99.90
19242;DHT22;9755;47.790;9.620;2022-10-30T08:47:31;20.30;99.90
19242;DHT22;9755;47.790;9.620;2022-10-30T08:49:58;20.30;1.00
19242;DHT22;9755;47.790;9.620;2022-10-30T08:52:25;20.50;1.00
19242;DHT22;9755;47.790;9.620;2022-10-30T08:54:53;20.40;99.90
19242;DHT22;9755;47.790;9.620;2022-10-30T08:57:20;20.10;1.00
19242;DHT22;9755;47.790;9.620;2022-10-30T08:59:47;20.20;1.00
19242;DHT22;9755;47.790;9.620;2022-10-30T09:02:14;19.90;99.90
19242;DHT22;9755;47.790;9.620;2022-10-30T09:04:41;19.60;99.90
19242;DHT22;9755;47.790;9.620;2022-10-30T09:07:08;19.50;99.90
19242;DHT22;9755;47.790;9.620;2022-10-30T09:09:35;19.00;99.90
19242;DHT22;9755;47.790;9.620;2022-10-30T09:12:04;18.80;99.90
19242;DHT22;9755;47.790;9.620;2022-10-30T09:14:31;18.70;99.90
19242;DHT22;9755;47.790;9.620;2022-10-30T09:16:58;18.70;99.90
19242;DHT22;9755;47.790;9.620;2022-10-30T09:19:25;18.70;99.90
19242;DHT22;9755;47.790;9.620;2022-10-30T09:21:53;19.10;12.10
19242;DHT22;9755;47.790;9.620;2022-10-30T09:24:20;19.50;10.90
19242;DHT22;9755;47.790;9.620;2022-10-30T09:26:47;20.40;1.00
19242;DHT22;9755;47.790;9.620;2022-10-30T09:29:15;21.50;1.00
19242;DHT22;9755;47.790;9.620;2022-10-30T09:31:42;22.30;1.00
19242;DHT22;9755;47.790;9.620;2022-10-30T09:34:09;22.50;1.00
19242;DHT22;9755;47.790;9.620;2022-10-30T09:36:36;23.20;1.00
19242;DHT22;9755;47.790;9.620;2022-10-30T09:39:03;24.20;1.00
19242;DHT22;9755;47.790;9.620;2022-10-30T09:41:48;24.80;1.00
19242;DHT22;9755;47.790;9.620;2022-10-30T09:44:26;25.20;1.00
19242;DHT22;9755;47.790;9.620;2022-10-30T09:47:03;24.20;99.90
19242;DHT22;9755;47.790;9.620;2022-10-30T09:49:45;24.20;1.00
19242;DHT22;9755;47.790;9.620;2022-10-30T09:52:25;24.80;1.00
19242;DHT22;9755;47.790;9.620;2022-10-30T09:57:48;24.80;99.90
19242;DHT22;9755;47.790;9.620;2022-10-30T10:00:21;24.60;99.90
19242;DHT22;9755;47.790;9.620;2022-10-30T10:02:56;25.40;1.00
19242;DHT22;9755;47.790;9.620;2022-10-30T10:05:26;26.00;99.90
19242;DHT22;9755;47.790;9.620;2022-10-30T10:07:57;26.50;99.90
19242;DHT22;9755;47.790;9.620;2022-10-30T10:10:33;26.10;99.90
19242;DHT22;9755;47.790;9.620;2022-10-30T10:13:03;25.60;99.90
19242;DHT22;9755;47.790;9.620;2022-10-30T10:15:38;26.00;99.90
19242;DHT22;9755;47.790;9.620;2022-10-30T10:18:13;25.50;99.90
19242;DHT22;9755;47.790;9.620;2022-10-30T10:20:46;26.00;99.90
19242;DHT22;9755;47.790;9.620;2022-10-30T10:23:17;26.10;99.90
19242;DHT22;9755;47.790;9.620;2022-10-30T10:25:49;26.00;99.90
19242;DHT22;9755;47.790;9.620;2022-10-30T10:28:30;26.30;99.90
19242;DHT22;9755;47.790;9.620;2022-10-30T10:31:10;26.60;99.90
19242;DHT22;9755;47.790;9.620;2022-10-30T10:33:48;26.80;99.90
19242;DHT22;9755;47.790;9.620;2022-10-30T10:36:29;27.00;99.90
19242;DHT22;9755;47.790;9.620;2022-10-30T10:39:12;26.50;99.90
19242;DHT22;9755;47.790;9.620;2022-10-30T10:41:59;26.60;99.90
19242;DHT22;9755;47.790;9.620;2022-10-30T10:44:36;26.70;99.90
19242;DHT22;9755;47.790;9.620;2022-10-30T10:47:15;25.60;99.90
19242;DHT22;9755;47.790;9.620;2022-10-30T10:49:58;25.50;99.90
19242;DHT22;9755;47.790;9.620;2022-10-30T10:52:35;25.60;99.90
19242;DHT22;9755;47.790;9.620;2022-10-30T10:55:05;25.80;99.90
19242;DHT22;9755;47.790;9.620;2022-10-30T10:57:37;25.60;99.90
19242;DHT22;9755;47.790;9.620;2022-10-30T11:00:07;26.00;99.90
19242;DHT22;9755;47.790;9.620;2022-10-30T11:02:43;26.30;99.90
19242;DHT22;9755;47.790;9.620;2022-10-30T11:05:17;26.50;99.90
19242;DHT22;9755;47.790;9.620;2022-10-30T11:07:47;25.40;99.90
19242;DHT22;9755;47.790;9.620;2022-10-30T11:10:16;25.40;99.90
19242;DHT22;9755;47.790;9.620;2022-10-30T11:12:44;24.90;99.90
19242;DHT22;9755;47.790;9.620;2022-10-30T11:15:35;24.20;99.90
19242;DHT22;9755;47.790;9.620;2022-10-30T11:18:06;23.50;99.90
19242;DHT22;9755;47.790;9.620;2022-10-30T11:20:41;23.00;99.90
19242;DHT22;9755;47.790;9.620;2022-10-30T11:23:37;23.10;99.90
19242;DHT22;9755;47.790;9.620;2022-10-30T11:26:30;23.40;99.90
19242;DHT22;9755;47.790;9.620;2022-10-30T11:29:00;22.60;99.90
19242;DHT22;9755;47.790;9.620;2022-10-30T11:31:29;23.20;99.90
19242;DHT22;9755;47.790;9.620;2022-10-30T11:34:22;23.70;99.90
19242;DHT22;9755;47.790;9.620;2022-10-30T11:36:51;24.60;99.90
19242;DHT22;9755;47.790;9.620;2022-10-30T11:39:20;24.90;99.90
19242;DHT22;9755;47.790;9.620;2022-10-30T11:41:55;24.10;99.90
19242;DHT22;9755;47.790;9.620;2022-10-30T11:44:23;24.50;99.90
19242;DHT22;9755;47.790;9.620;2022-10-30T11:46:51;24.60;99.90
19242;DHT22;9755;47.790;9.620;2022-10-30T11:49:36;24.20;99.90
19242;DHT22;9755;47.790;9.620;2022-10-30T11:52:05;24.60;99.90
19242;DHT22;9755;47.790;9.620;2022-10-30T11:54:36;25.00;99.90
19242;DHT22;9755;47.790;9.620;2022-10-30T11:57:15;24.80;99.90
19242;DHT22;9755;47.790;9.620;2022-10-30T11:59:45;25.20;99.90
19242;DHT22;9755;47.790;9.620;2022-10-30T12:02:20;25.70;99.90
19242;DHT22;9755;47.790;9.620;2022-10-30T12:04:49;25.60;99.90
19242;DHT22;9755;47.790;9.620;2022-10-30T12:07:23;24.70;99.90
19242;DHT22;9755;47.790;9.620;2022-10-30T12:09:51;23.70;99.90
19242;DHT22;9755;47.790;9.620;2022-10-30T12:12:22;24.00;99.90
19242;DHT22;9755;47.790;9.620;2022-10-30T12:14:50;24.00;99.90
19242;DHT22;9755;47.790;9.620;2022-10-30T12:17:18;24.30;99.90
19242;DHT22;9755;47.790;9.620;2022-10-30T12:19:49;24.00;99.90
19242;DHT22;9755;47.790;9.620;2022-10-30T12:22:30;23.50;99.90
19242;DHT22;9755;47.790;9.620;2022-10-30T12:25:00;23.90;99.90
19242;DHT22;9755;47.790;9.620;2022-10-30T12:27:29;24.00;99.90
19242;DHT22;9755;47.790;9.620;2022-10-30T12:30:03;24.10;99.90
19242;DHT22;9755;47.790;9.620;2022-10-30T12:32:37;24.10;99.90
19242;DHT22;9755;47.790;9.620;2022-10-30T12:35:14;24.10;99.90
19242;DHT22;9755;47.790;9.620;2022-10-30T12:37:43;24.40;99.90
19242;DHT22;9755;47.790;9.620;2022-10-30T12:40:14;24.40;99.90
19242;DHT22;9755;47.790;9.620;2022-10-30T12:42:47;24.40;99.90
19242;DHT22;9755;47.790;9.620;2022-10-30T12:45:18;23.80;99.90
19242;DHT22;9755;47.790;9.620;2022-10-30T12:47:50;23.60;99.90
19242;DHT22;9755;47.790;9.620;2022-10-30T12:50:23;23.60;99.90
19242;DHT22;9755;47.790;9.620;2022-10-30T12:52:56;23.20;99.90
19242;DHT22;9755;47.790;9.620;2022-10-30T12:55:28;23.10;99.90
19242;DHT22;9755;47.790;9.620;2022-10-30T12:58:04;23.40;99.90
19242;DHT22;9755;47.790;9.620;2022-10-30T13:00:44;23.00;99.90
19242;DHT22;9755;47.790;9.620;2022-10-30T13:03:23;23.40;99.90
19242;DHT22;9755;47.790;9.620;2022-10-30T13:05:56;23.40;99.90
19242;DHT22;9755;47.790;9.620;2022-10-30T13:08:29;23.30;99.90
19242;DHT22;9755;47.790;9.620;2022-10-30T13:11:03;23.30;99.90
19242;DHT22;9755;47.790;9.620;2022-10-30T13:13:36;23.30;99.90
19242;DHT22;9755;47.790;9.620;2022-10-30T13:16:07;23.20;99.90
19242;DHT22;9755;47.790;9.620;2022-10-30T13:18:36;23.10;99.90
19242;DHT22;9755;47.790;9.620;2022-10-30T13:21:15;22.90;99.90
19242;DHT22;9755;47.790;9.620;2022-10-30T13:23:51;22.70;99.90
19242;DHT22;9755;47.790;9.620;2022-10-30T13:26:29;22.40;99.90
19242;DHT22;9755;47.790;9.620;2022-10-30T13:29:04;22.10;99.90
19242;DHT22;9755;47.790;9.620;2022-10-30T13:31:38;21.80;99.90
19242;DHT22;9755;47.790;9.620;2022-10-30T13:34:22;21.40;99.90
19242;DHT22;9755;47.790;9.620;2022-10-30T13:36:59;21.00;1.00
19242;DHT22;9755;47.790;9.620;2022-10-30T13:39:31;20.70;1.00
19242;DHT22;9755;47.790;9.620;2022-10-30T13:42:24;20.50;1.00
19242;DHT22;9755;47.790;9.620;2022-10-30T13:45:03;20.30;1.00
19242;DHT22;9755;47.790;9.620;2022-10-30T13:47:37;19.90;1.00
19242;DHT22;9755;47.790;9.620;2022-10-30T13:50:35;19.70;1.00
19242;DHT22;9755;47.790;9.620;2022-10-30T13:53:12;19.50;1.00
19242;DHT22;9755;47.790;9.620;2022-10-30T13:55:41;19.20;1.00
19242;DHT22;9755;47.790;9.620;2022-10-30T13:58:16;19.10;58.80
19242;DHT22;9755;47.790;9.620;2022-10-30T14:00:55;18.90;99.90
19242;DHT22;9755;47.790;9.620;2022-10-30T14:03:33;18.70;1.00
19242;DHT22;9755;47.790;9.620;2022-10-30T14:06:10;18.50;1.00
19242;DHT22;9755;47.790;9.620;2022-10-30T14:08:43;18.30;1.00
19242;DHT22;9755;47.790;9.620;2022-10-30T14:11:14;18.00;1.00
19242;DHT22;9755;47.790;9.620;2022-10-30T14:13:45;18.00;1.00
19242;DHT22;9755;47.790;9.620;2022-10-30T14:16:32;17.90;1.00
19242;DHT22;9755;47.790;9.620;2022-10-30T14:19:00;17.80;1.00
19242;DHT22;9755;47.790;9.620;2022-10-30T14:21:36;17.70;99.90
19242;DHT22;9755;47.790;9.620;2022-10-30T14:24:11;17.60;99.90
19242;DHT22;9755;47.790;9.620;2022-10-30T14:26:46;17.60;99.90
19242;DHT22;9755;47.790;9.620;2022-10-30T14:29:42;17.60;1.00
19242;DHT22;9755;47.790;9.620;2022-10-30T14:32:35;17.60;1.00
19242;DHT22;9755;47.790;9.620;2022-10-30T14:35:28;17.60;1.00
19242;DHT22;9755;47.790;9.620;2022-10-30T14:38:23;17.60;1.00
19242;DHT22;9755;47.790;9.620;2022-10-30T14:41:08;17.70;1.00
19242;DHT22;9755;47.790;9.620;2022-10-30T14:43:44;17.70;1.00
19242;DHT22;9755;47.790;9.620;2022-10-30T14:46:18;17.80;1.00
19242;DHT22;9755;47.790;9.620;2022-10-30T14:48:59;17.80;1.00
19242;DHT22;9755;47.790;9.620;2022-10-30T14:51:33;17.70;99.90
19242;DHT22;9755;47.790;9.620;2022-10-30T14:54:05;17.80;99.90
19242;DHT22;9755;47.790;9.620;2022-10-30T14:56:40;17.70;99.90
19242;DHT22;9755;47.790;9.620;2022-10-30T14:59:21;17.70;99.90
19242;DHT22;9755;47.790;9.620;2022-10-30T15:01:55;17.80;99.90
19242;DHT22;9755;47.790;9.620;2022-10-30T15:04:30;17.80;1.00
19242;DHT22;9755;47.790;9.620;2022-10-30T15:07:07;17.90;1.00
19242;DHT22;9755;47.790;9.620;2022-10-30T15:09:42;17.80;1.00
19242;DHT22;9755;47.790;9.620;2022-10-30T15:12:25;17.80;1.00
19242;DHT22;9755;47.790;9.620;2022-10-30T15:14:56;17.70;1.00
19242;DHT22;9755;47.790;9.620;2022-10-30T15:17:30;17.50;99.90
19242;DHT22;9755;47.790;9.620;2022-10-30T15:20:00;17.40;99.90
19242;DHT22;9755;47.790;9.620;2022-10-30T15:22:29;17.20;99.90
19242;DHT22;9755;47.790;9.620;2022-10-30T15:24:57;17.00;1.00
19242;DHT22;9755;47.790;9.620;2022-10-30T15:27:26;16.90;1.00
19242;DHT22;9755;47.790;9.620;2022-10-30T15:29:56;16.80;1.00
19242;DHT22;9755;47.790;9.620;2022-10-30T15:32:25;16.60;99.90
19242;DHT22;9755;47.790;9.620;2022-10-30T15:34:54;16.50;1.00
19242;DHT22;9755;47.790;9.620;2022-10-30T15:37:21;16.30;1.00
19242;DHT22;9755;47.790;9.620;2022-10-30T15:39:48;16.20;99.90
19242;DHT22;9755;47.790;9.620;2022-10-30T15:42:15;16.00;1.00
19242;DHT22;9755;47.790;9.620;2022-10-30T15:44:45;15.80;1.00
19242;DHT22;9755;47.790;9.620;2022-10-30T15:47:14;15.70;99.90
19242;DHT22;9755;47.790;9.620;2022-10-30T15:49:49;15.60;1.00
19242;DHT22;9755;47.790;9.620;2022-10-30T15:52:20;15.50;99.90
19242;DHT22;9755;47.790;9.620;2022-10-30T15:54:51;15.30;1.00
19242;DHT22;9755;47.790;9.620;2022-10-30T15:57:28;15.20;99.90
19242;DHT22;9755;47.790;9.620;2022-10-30T16:00:02;15.10;1.00
19242;DHT22;9755;47.790;9.620;2022-10-30T16:02:31;15.00;99.90
19242;DHT22;9755;47.790;9.620;2022-10-30T16:04:58;14.90;1.00
19242;DHT22;9755;47.790;9.620;2022-10-30T16:07:27;14.80;99.90
19242;DHT22;9755;47.790;9.620;2022-10-30T16:09:56;14.70;99.90
19242;DHT22;9755;47.790;9.620;2022-10-30T16:12:24;14.60;1.00
19242;DHT22;9755;47.790;9.620;2022-10-30T16:14:52;14.50;1.00
19242;DHT22;9755;47.790;9.620;2022-10-30T16:17:21;14.30;99.90
19242;DHT22;9755;47.790;9.620;2022-10-30T16:19:50;14.20;99.90
19242;DHT22;9755;47.790;9.620;2022-10-30T16:22:22;14.10;1.00